WARR

Surabaya/Juanda International Airport

Airport
ICAO code
WARR
IATA Code
SUB
Summary
ICAO Region
APAC
ICAO Territory
Location

Sidoarjo, Jawa Timur

Serving
Surabaya
Elevation
9 ft
Coordinates
7° 22' 47" S , 112° 47' 13" E
KCC
Metar
Observation
WARR 091830Z 25005KT 9999 FEW020 26/25 Q1007 NOSIG
Station
JUANDA
Date/Time
2022-12-09 18:30:00
Wind direction
250°
Wind speed
05 kts
Lowest cloud amount
few clouds
Temperature
26°C
Dew point
25°C
Humidity
94%
QNH
1007 hPa
Weather condition
n/a

Juanda International Airport is an airport located in Sidoarjo, a small town near Surabaya, East Java. This airport serves Surabaya and surrounding areas.

Climatology

Tropical Savanna climate (Köppen climate classification Aw) - monthly mean temperature above 18°C in every month of the year and a pronounced dry season.

Airport map

Aerial View

Airport accidents

SKYbrary Partners:

Safety knowledge contributed by: